sensor_id;sensor_type;location;lat;lon;timestamp;P1;durP1;ratioP1;P2;durP2;ratioP2
39208;SDS011;24929;51.982;4.664;2022-08-25T00:00:04;16.10;;;12.67;;
39208;SDS011;24929;51.982;4.664;2022-08-25T00:02:29;13.52;;;12.13;;
39208;SDS011;24929;51.982;4.664;2022-08-25T00:04:54;13.80;;;12.40;;
39208;SDS011;24929;51.982;4.664;2022-08-25T00:07:19;13.83;;;12.57;;
39208;SDS011;24929;51.982;4.664;2022-08-25T00:09:45;14.97;;;13.57;;
39208;SDS011;24929;51.982;4.664;2022-08-25T00:12:10;13.73;;;12.32;;
39208;SDS011;24929;51.982;4.664;2022-08-25T00:14:36;13.93;;;12.57;;
39208;SDS011;24929;51.982;4.664;2022-08-25T00:17:02;13.50;;;12.15;;
39208;SDS011;24929;51.982;4.664;2022-08-25T00:19:30;13.48;;;12.18;;
39208;SDS011;24929;51.982;4.664;2022-08-25T00:21:56;16.63;;;10.95;;
39208;SDS011;24929;51.982;4.664;2022-08-25T00:24:21;13.43;;;12.13;;
39208;SDS011;24929;51.982;4.664;2022-08-25T00:26:48;13.68;;;12.32;;
39208;SDS011;24929;51.982;4.664;2022-08-25T00:29:14;12.98;;;11.70;;
39208;SDS011;24929;51.982;4.664;2022-08-25T00:31:39;12.20;;;11.05;;
39208;SDS011;24929;51.982;4.664;2022-08-25T00:34:09;12.90;;;11.60;;
39208;SDS011;24929;51.982;4.664;2022-08-25T00:36:35;10.88;;;9.88;;
39208;SDS011;24929;51.982;4.664;2022-08-25T00:39:00;13.55;;;10.63;;
39208;SDS011;24929;51.982;4.664;2022-08-25T00:41:25;12.40;;;10.93;;
39208;SDS011;24929;51.982;4.664;2022-08-25T00:46:21;11.80;;;10.63;;
39208;SDS011;24929;51.982;4.664;2022-08-25T00:48:47;14.75;;;10.60;;
39208;SDS011;24929;51.982;4.664;2022-08-25T00:51:16;12.52;;;11.32;;
39208;SDS011;24929;51.982;4.664;2022-08-25T00:53:43;14.10;;;12.57;;
39208;SDS011;24929;51.982;4.664;2022-08-25T00:56:09;12.68;;;11.55;;
39208;SDS011;24929;51.982;4.664;2022-08-25T00:58:34;15.70;;;12.57;;
39208;SDS011;24929;51.982;4.664;2022-08-25T01:01:01;13.68;;;12.30;;
39208;SDS011;24929;51.982;4.664;2022-08-25T01:03:28;13.10;;;11.77;;
39208;SDS011;24929;51.982;4.664;2022-08-25T01:05:53;15.70;;;11.90;;
39208;SDS011;24929;51.982;4.664;2022-08-25T01:08:20;13.05;;;11.90;;
39208;SDS011;24929;51.982;4.664;2022-08-25T01:10:46;17.65;;;12.55;;
39208;SDS011;24929;51.982;4.664;2022-08-25T01:13:15;14.02;;;12.68;;
39208;SDS011;24929;51.982;4.664;2022-08-25T01:15:44;12.70;;;11.45;;
39208;SDS011;24929;51.982;4.664;2022-08-25T01:18:10;13.98;;;12.50;;
39208;SDS011;24929;51.982;4.664;2022-08-25T01:20:35;13.73;;;11.43;;
39208;SDS011;24929;51.982;4.664;2022-08-25T01:23:01;13.63;;;12.23;;
39208;SDS011;24929;51.982;4.664;2022-08-25T01:27:55;12.00;;;10.68;;
39208;SDS011;24929;51.982;4.664;2022-08-25T01:30:20;12.55;;;11.35;;
39208;SDS011;24929;51.982;4.664;2022-08-25T01:32:46;12.77;;;11.52;;
39208;SDS011;24929;51.982;4.664;2022-08-25T01:35:11;13.93;;;12.00;;
39208;SDS011;24929;51.982;4.664;2022-08-25T01:37:36;13.82;;;11.70;;
39208;SDS011;24929;51.982;4.664;2022-08-25T01:40:02;13.00;;;11.73;;
39208;SDS011;24929;51.982;4.664;2022-08-25T01:42:32;15.60;;;14.07;;
39208;SDS011;24929;51.982;4.664;2022-08-25T01:45:01;15.32;;;13.77;;
39208;SDS011;24929;51.982;4.664;2022-08-25T01:47:26;14.85;;;13.40;;
39208;SDS011;24929;51.982;4.664;2022-08-25T01:49:52;16.77;;;13.07;;
39208;SDS011;24929;51.982;4.664;2022-08-25T01:52:23;13.70;;;11.80;;
39208;SDS011;24929;51.982;4.664;2022-08-25T01:54:49;14.25;;;12.50;;
39208;SDS011;24929;51.982;4.664;2022-08-25T01:57:14;13.02;;;11.75;;
39208;SDS011;24929;51.982;4.664;2022-08-25T01:59:39;12.63;;;11.30;;
39208;SDS011;24929;51.982;4.664;2022-08-25T02:02:05;13.27;;;11.98;;
39208;SDS011;24929;51.982;4.664;2022-08-25T02:04:30;13.53;;;12.13;;
39208;SDS011;24929;51.982;4.664;2022-08-25T02:06:57;14.48;;;12.68;;
39208;SDS011;24929;51.982;4.664;2022-08-25T02:09:22;14.20;;;12.90;;
39208;SDS011;24929;51.982;4.664;2022-08-25T02:11:48;14.02;;;12.65;;
39208;SDS011;24929;51.982;4.664;2022-08-25T02:14:14;13.63;;;12.23;;
39208;SDS011;24929;51.982;4.664;2022-08-25T02:16:40;13.38;;;12.05;;
39208;SDS011;24929;51.982;4.664;2022-08-25T02:19:06;14.30;;;13.00;;
39208;SDS011;24929;51.982;4.664;2022-08-25T02:21:32;13.60;;;12.27;;
39208;SDS011;24929;51.982;4.664;2022-08-25T02:23:59;14.02;;;12.65;;
39208;SDS011;24929;51.982;4.664;2022-08-25T02:26:25;13.00;;;11.70;;
39208;SDS011;24929;51.982;4.664;2022-08-25T02:28:50;13.80;;;12.35;;
39208;SDS011;24929;51.982;4.664;2022-08-25T02:31:17;13.30;;;11.93;;
39208;SDS011;24929;51.982;4.664;2022-08-25T02:33:43;13.10;;;11.90;;
39208;SDS011;24929;51.982;4.664;2022-08-25T02:36:08;13.10;;;11.65;;
39208;SDS011;24929;51.982;4.664;2022-08-25T02:38:34;11.60;;;10.50;;
39208;SDS011;24929;51.982;4.664;2022-08-25T02:41:00;13.77;;;11.85;;
39208;SDS011;24929;51.982;4.664;2022-08-25T02:43:25;12.45;;;11.15;;
39208;SDS011;24929;51.982;4.664;2022-08-25T02:45:51;12.80;;;11.60;;
39208;SDS011;24929;51.982;4.664;2022-08-25T02:48:16;12.05;;;10.93;;
39208;SDS011;24929;51.982;4.664;2022-08-25T02:50:46;11.82;;;10.35;;
39208;SDS011;24929;51.982;4.664;2022-08-25T02:53:11;13.15;;;11.15;;
39208;SDS011;24929;51.982;4.664;2022-08-25T02:55:36;11.23;;;10.23;;
39208;SDS011;24929;51.982;4.664;2022-08-25T02:58:02;11.63;;;10.43;;
39208;SDS011;24929;51.982;4.664;2022-08-25T03:00:27;11.75;;;10.32;;
39208;SDS011;24929;51.982;4.664;2022-08-25T03:02:52;11.13;;;9.85;;
39208;SDS011;24929;51.982;4.664;2022-08-25T03:05:17;10.57;;;9.57;;
39208;SDS011;24929;51.982;4.664;2022-08-25T03:07:42;10.73;;;9.67;;
39208;SDS011;24929;51.982;4.664;2022-08-25T03:10:09;12.00;;;10.17;;
39208;SDS011;24929;51.982;4.664;2022-08-25T03:12:35;10.13;;;9.13;;
39208;SDS011;24929;51.982;4.664;2022-08-25T03:15:00;13.77;;;10.10;;
39208;SDS011;24929;51.982;4.664;2022-08-25T03:17:26;10.75;;;9.75;;
39208;SDS011;24929;51.982;4.664;2022-08-25T03:19:51;11.07;;;9.67;;
39208;SDS011;24929;51.982;4.664;2022-08-25T03:22:16;11.57;;;10.10;;
39208;SDS011;24929;51.982;4.664;2022-08-25T03:24:41;12.83;;;9.33;;
39208;SDS011;24929;51.982;4.664;2022-08-25T03:27:06;9.53;;;8.67;;
39208;SDS011;24929;51.982;4.664;2022-08-25T03:29:32;10.77;;;9.67;;
39208;SDS011;24929;51.982;4.664;2022-08-25T03:31:58;10.15;;;9.15;;
39208;SDS011;24929;51.982;4.664;2022-08-25T03:34:24;10.63;;;9.52;;
39208;SDS011;24929;51.982;4.664;2022-08-25T03:36:50;10.73;;;9.13;;
39208;SDS011;24929;51.982;4.664;2022-08-25T03:39:16;11.88;;;8.32;;
39208;SDS011;24929;51.982;4.664;2022-08-25T03:41:42;9.77;;;8.80;;
39208;SDS011;24929;51.982;4.664;2022-08-25T03:44:08;10.23;;;9.32;;
39208;SDS011;24929;51.982;4.664;2022-08-25T03:46:37;10.13;;;9.13;;
39208;SDS011;24929;51.982;4.664;2022-08-25T03:49:04;11.98;;;8.18;;
39208;SDS011;24929;51.982;4.664;2022-08-25T03:51:31;10.05;;;8.10;;
39208;SDS011;24929;51.982;4.664;2022-08-25T03:53:57;8.55;;;7.85;;
39208;SDS011;24929;51.982;4.664;2022-08-25T03:56:23;8.68;;;7.88;;
39208;SDS011;24929;51.982;4.664;2022-08-25T03:58:48;9.80;;;8.88;;
39208;SDS011;24929;51.982;4.664;2022-08-25T04:01:14;10.35;;;8.77;;
39208;SDS011;24929;51.982;4.664;2022-08-25T04:03:39;8.55;;;7.82;;
39208;SDS011;24929;51.982;4.664;2022-08-25T04:06:05;9.23;;;8.33;;
39208;SDS011;24929;51.982;4.664;2022-08-25T04:08:30;8.73;;;7.93;;
39208;SDS011;24929;51.982;4.664;2022-08-25T04:10:55;7.95;;;7.25;;
39208;SDS011;24929;51.982;4.664;2022-08-25T04:13:21;9.47;;;8.47;;
39208;SDS011;24929;51.982;4.664;2022-08-25T04:15:47;10.68;;;8.23;;
39208;SDS011;24929;51.982;4.664;2022-08-25T04:18:12;8.77;;;8.00;;
39208;SDS011;24929;51.982;4.664;2022-08-25T04:20:38;9.05;;;8.30;;
39208;SDS011;24929;51.982;4.664;2022-08-25T04:23:04;8.85;;;7.70;;
39208;SDS011;24929;51.982;4.664;2022-08-25T04:25:29;8.80;;;8.00;;
39208;SDS011;24929;51.982;4.664;2022-08-25T04:27:55;11.15;;;7.82;;
39208;SDS011;24929;51.982;4.664;2022-08-25T04:30:20;9.93;;;8.93;;
39208;SDS011;24929;51.982;4.664;2022-08-25T04:32:46;11.23;;;8.20;;
39208;SDS011;24929;51.982;4.664;2022-08-25T04:35:12;8.52;;;7.72;;
39208;SDS011;24929;51.982;4.664;2022-08-25T04:37:37;9.25;;;7.93;;
39208;SDS011;24929;51.982;4.664;2022-08-25T04:40:03;10.60;;;9.60;;
39208;SDS011;24929;51.982;4.664;2022-08-25T04:42:28;11.30;;;8.75;;
39208;SDS011;24929;51.982;4.664;2022-08-25T04:44:54;9.30;;;8.50;;
39208;SDS011;24929;51.982;4.664;2022-08-25T04:47:19;11.20;;;8.60;;
39208;SDS011;24929;51.982;4.664;2022-08-25T04:49:45;8.45;;;7.65;;
39208;SDS011;24929;51.982;4.664;2022-08-25T04:52:10;8.67;;;7.90;;
39208;SDS011;24929;51.982;4.664;2022-08-25T04:54:35;9.45;;;8.52;;
39208;SDS011;24929;51.982;4.664;2022-08-25T04:57:01;10.95;;;8.77;;
39208;SDS011;24929;51.982;4.664;2022-08-25T04:59:26;9.17;;;8.33;;
39208;SDS011;24929;51.982;4.664;2022-08-25T05:01:51;9.10;;;8.30;;
39208;SDS011;24929;51.982;4.664;2022-08-25T05:04:19;12.93;;;8.68;;
39208;SDS011;24929;51.982;4.664;2022-08-25T05:06:44;10.25;;;8.60;;
39208;SDS011;24929;51.982;4.664;2022-08-25T05:09:10;9.18;;;8.38;;
39208;SDS011;24929;51.982;4.664;2022-08-25T05:11:36;10.93;;;9.82;;
39208;SDS011;24929;51.982;4.664;2022-08-25T05:14:01;11.68;;;9.48;;
39208;SDS011;24929;51.982;4.664;2022-08-25T05:16:27;11.23;;;10.07;;
39208;SDS011;24929;51.982;4.664;2022-08-25T05:18:52;13.98;;;9.63;;
39208;SDS011;24929;51.982;4.664;2022-08-25T05:21:19;10.20;;;9.20;;
39208;SDS011;24929;51.982;4.664;2022-08-25T05:23:45;9.90;;;8.93;;
39208;SDS011;24929;51.982;4.664;2022-08-25T05:26:15;10.50;;;9.40;;
39208;SDS011;24929;51.982;4.664;2022-08-25T05:28:41;9.70;;;8.80;;
39208;SDS011;24929;51.982;4.664;2022-08-25T05:31:06;9.30;;;8.50;;
39208;SDS011;24929;51.982;4.664;2022-08-25T05:33:32;9.65;;;8.75;;
39208;SDS011;24929;51.982;4.664;2022-08-25T05:35:58;9.75;;;8.85;;
39208;SDS011;24929;51.982;4.664;2022-08-25T05:38:23;10.73;;;9.02;;
39208;SDS011;24929;51.982;4.664;2022-08-25T05:40:53;9.30;;;7.95;;
39208;SDS011;24929;51.982;4.664;2022-08-25T05:43:20;10.38;;;8.75;;
39208;SDS011;24929;51.982;4.664;2022-08-25T05:45:45;10.63;;;8.93;;
39208;SDS011;24929;51.982;4.664;2022-08-25T05:48:11;9.55;;;8.60;;
39208;SDS011;24929;51.982;4.664;2022-08-25T05:50:36;12.07;;;9.07;;
39208;SDS011;24929;51.982;4.664;2022-08-25T05:53:01;8.23;;;7.50;;
39208;SDS011;24929;51.982;4.664;2022-08-25T05:55:26;9.13;;;8.23;;
39208;SDS011;24929;51.982;4.664;2022-08-25T05:57:52;9.97;;;9.17;;
39208;SDS011;24929;51.982;4.664;2022-08-25T06:00:17;9.02;;;8.27;;
39208;SDS011;24929;51.982;4.664;2022-08-25T06:02:42;11.23;;;10.07;;
39208;SDS011;24929;51.982;4.664;2022-08-25T06:05:11;8.45;;;7.70;;
39208;SDS011;24929;51.982;4.664;2022-08-25T06:07:37;10.65;;;9.10;;
39208;SDS011;24929;51.982;4.664;2022-08-25T06:10:03;9.20;;;8.30;;
39208;SDS011;24929;51.982;4.664;2022-08-25T06:12:29;9.80;;;8.90;;
39208;SDS011;24929;51.982;4.664;2022-08-25T06:14:56;9.20;;;8.32;;
39208;SDS011;24929;51.982;4.664;2022-08-25T06:17:21;11.25;;;9.05;;
39208;SDS011;24929;51.982;4.664;2022-08-25T06:19:47;12.02;;;8.68;;
39208;SDS011;24929;51.982;4.664;2022-08-25T06:22:12;9.82;;;8.82;;
39208;SDS011;24929;51.982;4.664;2022-08-25T06:24:37;10.33;;;8.83;;
39208;SDS011;24929;51.982;4.664;2022-08-25T06:27:02;9.27;;;8.40;;
39208;SDS011;24929;51.982;4.664;2022-08-25T06:29:27;13.13;;;9.88;;
39208;SDS011;24929;51.982;4.664;2022-08-25T06:31:53;10.90;;;9.85;;
39208;SDS011;24929;51.982;4.664;2022-08-25T06:34:18;9.73;;;8.82;;
39208;SDS011;24929;51.982;4.664;2022-08-25T06:36:43;10.23;;;9.23;;
39208;SDS011;24929;51.982;4.664;2022-08-25T06:39:09;9.77;;;8.83;;
39208;SDS011;24929;51.982;4.664;2022-08-25T06:41:34;10.00;;;9.00;;
39208;SDS011;24929;51.982;4.664;2022-08-25T06:43:59;8.95;;;8.15;;
39208;SDS011;24929;51.982;4.664;2022-08-25T06:46:25;8.73;;;8.00;;
39208;SDS011;24929;51.982;4.664;2022-08-25T06:48:51;10.15;;;9.23;;
39208;SDS011;24929;51.982;4.664;2022-08-25T06:51:17;10.70;;;9.60;;
39208;SDS011;24929;51.982;4.664;2022-08-25T06:53:43;10.35;;;8.20;;
39208;SDS011;24929;51.982;4.664;2022-08-25T06:56:08;10.30;;;9.23;;
39208;SDS011;24929;51.982;4.664;2022-08-25T06:58:34;11.68;;;8.90;;
39208;SDS011;24929;51.982;4.664;2022-08-25T07:01:16;14.75;;;8.80;;
39208;SDS011;24929;51.982;4.664;2022-08-25T07:03:42;9.50;;;8.52;;
39208;SDS011;24929;51.982;4.664;2022-08-25T07:06:07;9.93;;;8.73;;
39208;SDS011;24929;51.982;4.664;2022-08-25T07:08:33;9.63;;;8.70;;
39208;SDS011;24929;51.982;4.664;2022-08-25T07:11:03;10.63;;;9.52;;
39208;SDS011;24929;51.982;4.664;2022-08-25T07:13:29;12.48;;;8.30;;
39208;SDS011;24929;51.982;4.664;2022-08-25T07:15:55;13.43;;;8.13;;
39208;SDS011;24929;51.982;4.664;2022-08-25T07:18:20;8.68;;;7.78;;
39208;SDS011;24929;51.982;4.664;2022-08-25T07:20:46;8.02;;;7.18;;
39208;SDS011;24929;51.982;4.664;2022-08-25T07:23:12;8.18;;;7.38;;
39208;SDS011;24929;51.982;4.664;2022-08-25T07:25:37;7.17;;;6.57;;
39208;SDS011;24929;51.982;4.664;2022-08-25T07:28:03;9.57;;;7.40;;
39208;SDS011;24929;51.982;4.664;2022-08-25T07:30:28;7.85;;;6.35;;
39208;SDS011;24929;51.982;4.664;2022-08-25T07:32:53;7.80;;;6.97;;
39208;SDS011;24929;51.982;4.664;2022-08-25T07:35:19;8.07;;;6.07;;
39208;SDS011;24929;51.982;4.664;2022-08-25T07:37:49;12.43;;;7.47;;
39208;SDS011;24929;51.982;4.664;2022-08-25T07:40:19;7.93;;;6.18;;
39208;SDS011;24929;51.982;4.664;2022-08-25T07:42:47;7.88;;;6.43;;
39208;SDS011;24929;51.982;4.664;2022-08-25T07:45:12;7.85;;;6.65;;
39208;SDS011;24929;51.982;4.664;2022-08-25T07:47:38;6.75;;;5.60;;
39208;SDS011;24929;51.982;4.664;2022-08-25T07:50:05;6.03;;;5.53;;
39208;SDS011;24929;51.982;4.664;2022-08-25T07:52:30;5.40;;;4.97;;
39208;SDS011;24929;51.982;4.664;2022-08-25T07:54:55;14.25;;;5.53;;
39208;SDS011;24929;51.982;4.664;2022-08-25T07:57:21;6.00;;;4.97;;
39208;SDS011;24929;51.982;4.664;2022-08-25T07:59:48;4.80;;;4.40;;
39208;SDS011;24929;51.982;4.664;2022-08-25T08:02:13;5.00;;;4.60;;
39208;SDS011;24929;51.982;4.664;2022-08-25T08:04:39;5.27;;;4.43;;
39208;SDS011;24929;51.982;4.664;2022-08-25T08:07:06;3.92;;;3.63;;
39208;SDS011;24929;51.982;4.664;2022-08-25T08:09:31;4.03;;;3.65;;
39208;SDS011;24929;51.982;4.664;2022-08-25T08:11:56;5.73;;;3.60;;
39208;SDS011;24929;51.982;4.664;2022-08-25T08:14:22;6.90;;;4.20;;
39208;SDS011;24929;51.982;4.664;2022-08-25T08:16:47;6.47;;;4.28;;
39208;SDS011;24929;51.982;4.664;2022-08-25T08:19:12;4.47;;;4.05;;
39208;SDS011;24929;51.982;4.664;2022-08-25T08:21:37;3.80;;;3.50;;
39208;SDS011;24929;51.982;4.664;2022-08-25T08:24:03;4.03;;;3.63;;
39208;SDS011;24929;51.982;4.664;2022-08-25T08:26:28;3.83;;;3.53;;
39208;SDS011;24929;51.982;4.664;2022-08-25T08:28:54;4.72;;;3.80;;
39208;SDS011;24929;51.982;4.664;2022-08-25T08:31:21;4.68;;;3.90;;
39208;SDS011;24929;51.982;4.664;2022-08-25T08:33:47;3.05;;;2.75;;
39208;SDS011;24929;51.982;4.664;2022-08-25T08:36:13;7.85;;;3.50;;
39208;SDS011;24929;51.982;4.664;2022-08-25T08:38:39;3.13;;;2.67;;
39208;SDS011;24929;51.982;4.664;2022-08-25T08:41:26;6.63;;;3.58;;
39208;SDS011;24929;51.982;4.664;2022-08-25T08:44:20;3.58;;;3.28;;
39208;SDS011;24929;51.982;4.664;2022-08-25T08:52:14;2.97;;;2.72;;
39208;SDS011;24929;51.982;4.664;2022-08-25T08:54:40;2.63;;;2.42;;
39208;SDS011;24929;51.982;4.664;2022-08-25T08:57:13;3.90;;;2.33;;
39208;SDS011;24929;51.982;4.664;2022-08-25T08:59:47;3.03;;;2.60;;
39208;SDS011;24929;51.982;4.664;2022-08-25T09:02:24;3.47;;;2.95;;
39208;SDS011;24929;51.982;4.664;2022-08-25T09:04:52;4.80;;;2.75;;
39208;SDS011;24929;51.982;4.664;2022-08-25T09:07:28;3.17;;;2.88;;
39208;SDS011;24929;51.982;4.664;2022-08-25T09:09:54;2.97;;;2.70;;
39208;SDS011;24929;51.982;4.664;2022-08-25T09:24:52;5.57;;;2.87;;
39208;SDS011;24929;51.982;4.664;2022-08-25T09:30:40;3.65;;;2.50;;
39208;SDS011;24929;51.982;4.664;2022-08-25T09:32:52;5.45;;;3.25;;
39208;SDS011;24929;51.982;4.664;2022-08-25T09:35:32;4.43;;;2.50;;
39208;SDS011;24929;51.982;4.664;2022-08-25T09:38:01;3.60;;;2.50;;
39208;SDS011;24929;51.982;4.664;2022-08-25T09:40:28;3.75;;;2.78;;
39208;SDS011;24929;51.982;4.664;2022-08-25T09:42:56;2.78;;;2.58;;
39208;SDS011;24929;51.982;4.664;2022-08-25T09:45:34;2.55;;;2.35;;
39208;SDS011;24929;51.982;4.664;2022-08-25T09:48:00;7.43;;;2.90;;
39208;SDS011;24929;51.982;4.664;2022-08-25T09:50:29;4.22;;;2.70;;
39208;SDS011;24929;51.982;4.664;2022-08-25T09:52:55;7.32;;;2.70;;
39208;SDS011;24929;51.982;4.664;2022-08-25T09:55:34;2.88;;;2.05;;
39208;SDS011;24929;51.982;4.664;2022-08-25T09:57:59;2.63;;;2.20;;
39208;SDS011;24929;51.982;4.664;2022-08-25T10:00:29;5.55;;;3.03;;
39208;SDS011;24929;51.982;4.664;2022-08-25T10:05:37;2.35;;;2.20;;
39208;SDS011;24929;51.982;4.664;2022-08-25T10:10:52;3.70;;;2.75;;
39208;SDS011;24929;51.982;4.664;2022-08-25T10:13:18;3.10;;;2.80;;
39208;SDS011;24929;51.982;4.664;2022-08-25T10:15:44;2.83;;;2.63;;
39208;SDS011;24929;51.982;4.664;2022-08-25T10:18:21;2.55;;;2.35;;
39208;SDS011;24929;51.982;4.664;2022-08-25T10:21:21;2.45;;;2.25;;
39208;SDS011;24929;51.982;4.664;2022-08-25T10:23:47;2.67;;;2.47;;
39208;SDS011;24929;51.982;4.664;2022-08-25T10:26:17;3.85;;;2.60;;
39208;SDS011;24929;51.982;4.664;2022-08-25T10:29:21;2.67;;;2.40;;
39208;SDS011;24929;51.982;4.664;2022-08-25T10:31:39;3.80;;;2.63;;
39208;SDS011;24929;51.982;4.664;2022-08-25T10:34:16;2.92;;;2.63;;
39208;SDS011;24929;51.982;4.664;2022-08-25T10:49:40;3.00;;;2.80;;
39208;SDS011;24929;51.982;4.664;2022-08-25T10:53:07;4.20;;;3.13;;
39208;SDS011;24929;51.982;4.664;2022-08-25T10:57:41;2.80;;;2.60;;
39208;SDS011;24929;51.982;4.664;2022-08-25T11:00:10;3.15;;;2.63;;
39208;SDS011;24929;51.982;4.664;2022-08-25T11:05:19;2.17;;;2.08;;
39208;SDS011;24929;51.982;4.664;2022-08-25T11:07:48;4.55;;;2.70;;
39208;SDS011;24929;51.982;4.664;2022-08-25T11:12:42;3.13;;;2.70;;
39208;SDS011;24929;51.982;4.664;2022-08-25T11:15:09;2.72;;;2.53;;
39208;SDS011;24929;51.982;4.664;2022-08-25T11:20:06;3.83;;;3.03;;
39208;SDS011;24929;51.982;4.664;2022-08-25T11:22:42;2.55;;;2.35;;
39208;SDS011;24929;51.982;4.664;2022-08-25T11:25:25;3.28;;;2.60;;
39208;SDS011;24929;51.982;4.664;2022-08-25T11:27:56;3.30;;;3.00;;
39208;SDS011;24929;51.982;4.664;2022-08-25T11:30:23;3.38;;;2.88;;
39208;SDS011;24929;51.982;4.664;2022-08-25T11:32:49;2.70;;;2.45;;
39208;SDS011;24929;51.982;4.664;2022-08-25T11:35:16;3.15;;;2.60;;
39208;SDS011;24929;51.982;4.664;2022-08-25T11:37:52;3.78;;;3.47;;
39208;SDS011;24929;51.982;4.664;2022-08-25T11:40:42;4.57;;;3.03;;
39208;SDS011;24929;51.982;4.664;2022-08-25T11:44:00;4.35;;;2.80;;
39208;SDS011;24929;51.982;4.664;2022-08-25T11:56:39;6.67;;;2.60;;
39208;SDS011;24929;51.982;4.664;2022-08-25T11:59:07;2.78;;;2.50;;
39208;SDS011;24929;51.982;4.664;2022-08-25T12:04:14;5.60;;;2.50;;
39208;SDS011;24929;51.982;4.664;2022-08-25T12:09:24;6.00;;;2.53;;
39208;SDS011;24929;51.982;4.664;2022-08-25T12:11:50;2.85;;;2.65;;
39208;SDS011;24929;51.982;4.664;2022-08-25T14:03:40;4.40;;;3.08;;
39208;SDS011;24929;51.982;4.664;2022-08-25T14:17:44;3.03;;;2.75;;
39208;SDS011;24929;51.982;4.664;2022-08-25T14:20:16;3.20;;;2.92;;
39208;SDS011;24929;51.982;4.664;2022-08-25T15:13:55;3.58;;;3.28;;
39208;SDS011;24929;51.982;4.664;2022-08-25T15:16:22;4.45;;;3.33;;
39208;SDS011;24929;51.982;4.664;2022-08-25T15:18:48;3.78;;;3.40;;
39208;SDS011;24929;51.982;4.664;2022-08-25T15:21:14;5.90;;;3.25;;
39208;SDS011;24929;51.982;4.664;2022-08-25T15:23:40;6.65;;;3.97;;
39208;SDS011;24929;51.982;4.664;2022-08-25T15:26:07;5.22;;;3.47;;
39208;SDS011;24929;51.982;4.664;2022-08-25T15:28:34;3.72;;;3.42;;
39208;SDS011;24929;51.982;4.664;2022-08-25T15:31:00;4.22;;;3.83;;
39208;SDS011;24929;51.982;4.664;2022-08-25T15:33:25;7.03;;;4.30;;
39208;SDS011;24929;51.982;4.664;2022-08-25T15:35:51;4.80;;;4.45;;
39208;SDS011;24929;51.982;4.664;2022-08-25T15:38:17;6.22;;;4.32;;
39208;SDS011;24929;51.982;4.664;2022-08-25T15:40:43;5.50;;;5.00;;
39208;SDS011;24929;51.982;4.664;2022-08-25T15:43:08;12.18;;;8.35;;
39208;SDS011;24929;51.982;4.664;2022-08-25T15:45:34;10.93;;;9.82;;
39208;SDS011;24929;51.982;4.664;2022-08-25T15:48:00;14.80;;;10.90;;
39208;SDS011;24929;51.982;4.664;2022-08-25T15:50:27;14.82;;;13.25;;
39208;SDS011;24929;51.982;4.664;2022-08-25T15:52:53;14.45;;;12.95;;
39208;SDS011;24929;51.982;4.664;2022-08-25T15:55:20;14.20;;;12.27;;
39208;SDS011;24929;51.982;4.664;2022-08-25T15:57:47;17.80;;;13.75;;
39208;SDS011;24929;51.982;4.664;2022-08-25T16:00:13;13.82;;;12.48;;
39208;SDS011;24929;51.982;4.664;2022-08-25T16:02:39;13.82;;;11.43;;
39208;SDS011;24929;51.982;4.664;2022-08-25T16:05:05;14.93;;;13.43;;
39208;SDS011;24929;51.982;4.664;2022-08-25T16:07:31;15.90;;;14.20;;
39208;SDS011;24929;51.982;4.664;2022-08-25T16:09:57;16.83;;;14.73;;
39208;SDS011;24929;51.982;4.664;2022-08-25T16:12:22;19.80;;;14.27;;
39208;SDS011;24929;51.982;4.664;2022-08-25T16:14:48;17.02;;;15.30;;
39208;SDS011;24929;51.982;4.664;2022-08-25T16:17:14;18.17;;;13.35;;
39208;SDS011;24929;51.982;4.664;2022-08-25T16:19:39;17.50;;;15.63;;
39208;SDS011;24929;51.982;4.664;2022-08-25T16:22:04;17.08;;;14.63;;
39208;SDS011;24929;51.982;4.664;2022-08-25T16:24:30;19.83;;;15.82;;
39208;SDS011;24929;51.982;4.664;2022-08-25T16:26:56;16.38;;;14.32;;
39208;SDS011;24929;51.982;4.664;2022-08-25T16:29:29;18.25;;;15.82;;
39208;SDS011;24929;51.982;4.664;2022-08-25T16:31:55;17.70;;;15.80;;
39208;SDS011;24929;51.982;4.664;2022-08-25T16:34:22;18.20;;;16.17;;
39208;SDS011;24929;51.982;4.664;2022-08-25T16:36:48;20.63;;;16.02;;
39208;SDS011;24929;51.982;4.664;2022-08-25T16:39:14;16.48;;;14.82;;
39208;SDS011;24929;51.982;4.664;2022-08-25T16:56:55;15.95;;;14.25;;
39208;SDS011;24929;51.982;4.664;2022-08-25T16:59:22;20.02;;;16.80;;
39208;SDS011;24929;51.982;4.664;2022-08-25T17:01:48;19.75;;;15.45;;
39208;SDS011;24929;51.982;4.664;2022-08-25T17:04:14;20.58;;;14.77;;
39208;SDS011;24929;51.982;4.664;2022-08-25T17:06:40;18.08;;;15.15;;
39208;SDS011;24929;51.982;4.664;2022-08-25T17:09:07;17.33;;;15.63;;
39208;SDS011;24929;51.982;4.664;2022-08-25T17:11:34;17.15;;;15.10;;
39208;SDS011;24929;51.982;4.664;2022-08-25T17:14:02;15.55;;;13.95;;
39208;SDS011;24929;51.982;4.664;2022-08-25T17:16:30;18.40;;;14.90;;
39208;SDS011;24929;51.982;4.664;2022-08-25T17:18:56;20.98;;;14.75;;
39208;SDS011;24929;51.982;4.664;2022-08-25T17:21:23;17.65;;;13.90;;
39208;SDS011;24929;51.982;4.664;2022-08-25T17:23:51;16.25;;;14.75;;
39208;SDS011;24929;51.982;4.664;2022-08-25T17:26:18;19.00;;;15.88;;
39208;SDS011;24929;51.982;4.664;2022-08-25T17:28:44;18.33;;;14.52;;
39208;SDS011;24929;51.982;4.664;2022-08-25T17:31:10;18.05;;;15.85;;
39208;SDS011;24929;51.982;4.664;2022-08-25T17:33:36;20.30;;;15.00;;
39208;SDS011;24929;51.982;4.664;2022-08-25T17:36:02;17.33;;;15.35;;
39208;SDS011;24929;51.982;4.664;2022-08-25T17:38:28;16.67;;;14.90;;
39208;SDS011;24929;51.982;4.664;2022-08-25T17:40:57;18.70;;;13.60;;
39208;SDS011;24929;51.982;4.664;2022-08-25T17:43:23;15.48;;;13.65;;
39208;SDS011;24929;51.982;4.664;2022-08-25T17:45:49;16.98;;;14.20;;
39208;SDS011;24929;51.982;4.664;2022-08-25T17:48:15;18.02;;;16.13;;
39208;SDS011;24929;51.982;4.664;2022-08-25T17:50:41;22.20;;;14.40;;
39208;SDS011;24929;51.982;4.664;2022-08-25T17:53:07;15.67;;;12.90;;
39208;SDS011;24929;51.982;4.664;2022-08-25T17:55:32;16.30;;;14.07;;
39208;SDS011;24929;51.982;4.664;2022-08-25T17:57:58;14.93;;;12.90;;
39208;SDS011;24929;51.982;4.664;2022-08-25T18:00:23;13.77;;;12.33;;
39208;SDS011;24929;51.982;4.664;2022-08-25T18:02:49;15.45;;;11.73;;
39208;SDS011;24929;51.982;4.664;2022-08-25T18:05:15;15.52;;;11.82;;
39208;SDS011;24929;51.982;4.664;2022-08-25T18:07:40;14.63;;;10.23;;
39208;SDS011;24929;51.982;4.664;2022-08-25T18:10:06;13.23;;;11.77;;
39208;SDS011;24929;51.982;4.664;2022-08-25T18:12:32;12.90;;;11.65;;
39208;SDS011;24929;51.982;4.664;2022-08-25T18:14:58;14.27;;;12.88;;
39208;SDS011;24929;51.982;4.664;2022-08-25T18:17:23;12.48;;;11.18;;
39208;SDS011;24929;51.982;4.664;2022-08-25T18:19:49;12.57;;;10.47;;
39208;SDS011;24929;51.982;4.664;2022-08-25T18:22:14;10.88;;;9.77;;
39208;SDS011;24929;51.982;4.664;2022-08-25T18:24:40;11.43;;;8.85;;
39208;SDS011;24929;51.982;4.664;2022-08-25T18:27:05;9.80;;;7.30;;
39208;SDS011;24929;51.982;4.664;2022-08-25T18:29:31;9.50;;;7.20;;
39208;SDS011;24929;51.982;4.664;2022-08-25T18:31:56;6.93;;;6.22;;
39208;SDS011;24929;51.982;4.664;2022-08-25T18:34:21;11.23;;;7.07;;
39208;SDS011;24929;51.982;4.664;2022-08-25T18:36:48;10.27;;;7.03;;
39208;SDS011;24929;51.982;4.664;2022-08-25T18:39:13;13.75;;;6.50;;
39208;SDS011;24929;51.982;4.664;2022-08-25T18:41:57;6.63;;;5.60;;
39208;SDS011;24929;51.982;4.664;2022-08-25T18:44:25;8.32;;;5.45;;
39208;SDS011;24929;51.982;4.664;2022-08-25T18:46:50;10.93;;;5.30;;
39208;SDS011;24929;51.982;4.664;2022-08-25T18:49:15;10.25;;;5.80;;
39208;SDS011;24929;51.982;4.664;2022-08-25T18:51:41;8.75;;;5.03;;